Hohenfels Army Air Field ETIH

Flugplatz Daten

Name: Hohenfels Army Air Field

Ident: ETIH

Lat: 49,2181015

Long: 11,83609962

Platzhöhe: 1455 ft

IataCode:

City:

Metar

2021/10/16 16:56
ETIH 161656Z AUTO 27003KT 4000 HZ CLR 07/04 A3014 RMK AO2 VIS 2800V4000 SLP222 T00660037

Taf

2017/06/19 21:16
TAF ETIH 192112Z 1921/2103 VRB06KT 9999 FEW070 QNH2994INS
TEMPO 2011/2016 29012KT TX28/2013Z TN12/2003Z LAST NO
AMDS AFT 1921
Gewünschte Webcam nicht vorhanden? Dann fügen Sie eine hinzu. Sie wird dann so schnell wie möglich freigeschaltet
Url: Title: